Time;durP1;ratioP1;P1;durP2;ratioP2;P2;SDS_P1;SDS_P2;PMS_P1;PMS_P2;Temp;Humidity;BMP_temperature;BMP_pressure;BME280_temperature;BME280_humidity;BME280_pressure;Samples;Min_cycle;Max_cycle;Signal;HPM_P1;HPM_P2
2022/10/01 00:00:47;;;;;;;;;;;17.90;91.70;;;;;;5054651;28;19920;-11
2022/10/01 00:03:13;;;;;;;;;;;17.90;91.60;;;;;;5071684;28;20330;-11
2022/10/01 00:05:38;;;;;;;;;;;17.90;91.60;;;;;;5056276;28;19909;-11
2022/10/01 00:08:04;;;;;;;;;;;17.90;91.60;;;;;;5076131;28;19973;-11
2022/10/01 00:10:30;;;;;;;;;;;17.90;91.60;;;;;;5076945;28;19952;-11
2022/10/01 00:12:57;;;;;;;;;;;17.90;91.60;;;;;;5059017;28;19919;-11
2022/10/01 00:15:23;;;;;;;;;;;17.90;91.60;;;;;;5059252;28;19944;-11
2022/10/01 00:17:48;;;;;;;;;;;17.90;91.50;;;;;;5076140;28;20037;-11
2022/10/01 00:20:14;;;;;;;;;;;17.90;91.60;;;;;;5058435;28;20026;-11
2022/10/01 00:22:40;;;;;;;;;;;17.90;91.60;;;;;;5058825;28;19908;-11
2022/10/01 00:25:06;;;;;;;;;;;17.90;91.60;;;;;;5058196;28;19909;-11
2022/10/01 00:27:31;;;;;;;;;;;17.90;91.60;;;;;;5058091;28;20056;-11
2022/10/01 00:29:57;;;;;;;;;;;17.90;91.60;;;;;;5076206;28;20037;-11
2022/10/01 00:32:23;;;;;;;;;;;17.80;91.50;;;;;;5075403;28;19930;-11
2022/10/01 00:34:49;;;;;;;;;;;17.90;91.60;;;;;;5057418;28;20010;-11
2022/10/01 00:37:16;;;;;;;;;;;17.80;91.50;;;;;;5076428;28;19908;-11
2022/10/01 00:39:43;;;;;;;;;;;17.90;91.60;;;;;;5058668;28;20359;-11
2022/10/01 00:42:16;;;;;;;;;;;17.80;91.50;;;;;;5077675;28;19916;-11
2022/10/01 00:44:42;;;;;;;;;;;17.90;91.50;;;;;;5058700;28;19916;-11
2022/10/01 00:47:14;;;;;;;;;;;17.80;91.40;;;;;;5058660;28;19923;-11
2022/10/01 00:49:41;;;;;;;;;;;17.80;91.50;;;;;;5076301;28;19908;-11
2022/10/01 00:52:09;;;;;;;;;;;17.80;91.50;;;;;;5057600;28;19912;-11
2022/10/01 00:54:43;;;;;;;;;;;17.80;91.50;;;;;;5059881;28;19948;-11
2022/10/01 00:57:09;;;;;;;;;;;17.90;91.50;;;;;;5075850;28;19973;-11
2022/10/01 00:59:35;;;;;;;;;;;17.80;91.80;;;;;;5076989;28;20027;-11
2022/10/01 01:02:00;;;;;;;;;;;17.80;91.50;;;;;;5077621;28;19919;-11
2022/10/01 01:04:26;;;;;;;;;;;17.80;91.50;;;;;;5076615;28;19918;-11
2022/10/01 01:06:56;;;;;;;;;;;17.80;91.50;;;;;;5057334;28;19909;-11
2022/10/01 01:09:24;;;;;;;;;;;17.80;91.50;;;;;;5058829;28;19939;-11
2022/10/01 01:11:53;;;;;;;;;;;17.80;91.50;;;;;;5058502;28;20476;-11
2022/10/01 01:14:44;;;;;;;;;;;17.80;91.50;;;;;;5075243;28;20299;-11
2022/10/01 01:17:13;;;;;;;;;;;17.80;91.50;;;;;;5023047;28;19912;-11
2022/10/01 01:19:46;;;;;;;;;;;17.80;91.50;;;;;;5061917;28;19916;-11
2022/10/01 01:22:22;;;;;;;;;;;17.80;91.50;;;;;;5078862;28;19995;-11
2022/10/01 01:24:55;;;;;;;;;;;17.80;91.60;;;;;;5061735;28;19908;-11
2022/10/01 01:27:24;;;;;;;;;;;17.80;91.60;;;;;;5061690;28;19917;-11
2022/10/01 01:29:52;;;;;;;;;;;17.80;91.60;;;;;;5079006;28;20177;-11
2022/10/01 01:32:25;;;;;;;;;;;17.80;91.60;;;;;;5078869;28;20281;-11
2022/10/01 01:34:52;;;;;;;;;;;17.70;91.50;;;;;;5061636;28;19920;-11
2022/10/01 01:37:19;;;;;;;;;;;17.70;91.60;;;;;;5076417;28;19909;-11
2022/10/01 01:39:47;;;;;;;;;;;17.70;91.60;;;;;;5056244;28;20087;-11
2022/10/01 01:42:16;;;;;;;;;;;17.70;91.60;;;;;;5054543;28;19908;-11
2022/10/01 01:44:44;;;;;;;;;;;17.70;91.60;;;;;;5071603;28;19976;-11
2022/10/01 01:47:11;;;;;;;;;;;17.70;91.60;;;;;;5072280;28;20074;-11
2022/10/01 01:49:38;;;;;;;;;;;17.70;91.70;;;;;;5056337;28;19912;-11
2022/10/01 01:52:08;;;;;;;;;;;17.70;91.70;;;;;;5072932;28;19977;-11
2022/10/01 01:54:35;;;;;;;;;;;17.70;91.70;;;;;;5055992;28;19920;-11
2022/10/01 01:57:03;;;;;;;;;;;17.60;91.80;;;;;;5073644;28;19916;-11
2022/10/01 01:59:30;;;;;;;;;;;17.60;91.80;;;;;;5073385;28;19944;-11
2022/10/01 02:01:57;;;;;;;;;;;17.60;91.80;;;;;;5072827;28;19916;-11
2022/10/01 02:04:38;;;;;;;;;;;17.60;91.80;;;;;;5056129;28;19909;-11
2022/10/01 02:07:17;;;;;;;;;;;17.60;91.80;;;;;;5056455;28;19908;-11
2022/10/01 02:09:58;;;;;;;;;;;17.60;91.90;;;;;;5075417;28;20352;-11
2022/10/01 02:12:29;;;;;;;;;;;17.60;91.90;;;;;;5073700;28;19968;-11
2022/10/01 02:15:00;;;;;;;;;;;17.60;92.00;;;;;;5073731;28;19970;-11
2022/10/01 02:17:29;;;;;;;;;;;17.60;92.00;;;;;;5057621;28;19908;-11
2022/10/01 02:19:58;;;;;;;;;;;17.60;92.00;;;;;;5074780;28;19938;-11
2022/10/01 02:22:39;;;;;;;;;;;17.60;92.00;;;;;;5077765;28;19955;-11
2022/10/01 02:25:05;;;;;;;;;;;17.60;92.00;;;;;;5060702;28;19962;-11
2022/10/01 02:27:54;;;;;;;;;;;17.50;92.10;;;;;;5077438;28;19913;-11
2022/10/01 02:30:20;;;;;;;;;;;17.50;92.10;;;;;;5048126;28;20345;-11
2022/10/01 02:32:48;;;;;;;;;;;17.60;92.10;;;;;;5078426;28;20261;-11
2022/10/01 02:35:16;;;;;;;;;;;17.50;92.10;;;;;;5077890;28;19912;-11
2022/10/01 02:37:43;;;;;;;;;;;17.50;92.10;;;;;;5078164;28;19908;-11
2022/10/01 02:40:14;;;;;;;;;;;17.50;92.20;;;;;;5077918;28;19909;-11
2022/10/01 02:42:45;;;;;;;;;;;17.50;92.20;;;;;;5078393;28;19909;-11
2022/10/01 02:45:12;;;;;;;;;;;17.50;92.20;;;;;;5077749;28;20429;-11
2022/10/01 02:47:43;;;;;;;;;;;17.50;92.30;;;;;;5078105;28;20415;-11
2022/10/01 02:50:11;;;;;;;;;;;17.50;92.30;;;;;;5072935;28;20206;-11
2022/10/01 02:52:44;;;;;;;;;;;17.50;92.30;;;;;;5077496;28;19912;-11
2022/10/01 02:55:22;;;;;;;;;;;17.50;92.30;;;;;;5077974;28;19908;-11
2022/10/01 02:57:48;;;;;;;;;;;17.50;92.30;;;;;;5060226;28;20262;-11
2022/10/01 03:00:15;;;;;;;;;;;17.50;92.30;;;;;;5077747;28;19920;-11
2022/10/01 03:02:41;;;;;;;;;;;17.50;92.30;;;;;;5060562;28;19919;-11
2022/10/01 03:05:07;;;;;;;;;;;17.50;92.30;;;;;;5061029;28;20006;-11
2022/10/01 03:07:36;;;;;;;;;;;17.50;92.30;;;;;;5077621;28;20000;-11
2022/10/01 03:10:03;;;;;;;;;;;17.40;92.30;;;;;;5078184;28;19985;-11
2022/10/01 03:12:29;;;;;;;;;;;17.50;92.40;;;;;;5060161;28;19951;-11
2022/10/01 03:14:54;;;;;;;;;;;17.40;92.40;;;;;;5077749;28;19944;-11
2022/10/01 03:17:20;;;;;;;;;;;17.40;92.40;;;;;;5077283;28;19999;-11
2022/10/01 03:19:45;;;;;;;;;;;17.40;92.40;;;;;;5077620;28;20000;-11
2022/10/01 03:22:12;;;;;;;;;;;17.40;92.50;;;;;;5077135;28;19908;-11
2022/10/01 03:24:37;;;;;;;;;;;17.40;92.50;;;;;;5059446;28;20007;-11
2022/10/01 03:27:03;;;;;;;;;;;17.40;92.50;;;;;;5077123;28;19958;-11
2022/10/01 03:29:29;;;;;;;;;;;17.40;92.50;;;;;;5075859;28;19909;-11
2022/10/01 03:31:55;;;;;;;;;;;17.40;92.80;;;;;;5073809;28;20018;-11
2022/10/01 03:34:20;;;;;;;;;;;17.40;92.60;;;;;;5056527;28;19908;-11
2022/10/01 03:36:46;;;;;;;;;;;17.30;92.60;;;;;;5057124;28;20197;-11
2022/10/01 03:39:12;;;;;;;;;;;17.30;92.60;;;;;;5074600;28;19912;-11
2022/10/01 03:41:37;;;;;;;;;;;17.40;92.60;;;;;;5077451;28;19909;-11
2022/10/01 03:44:04;;;;;;;;;;;17.30;92.60;;;;;;5062626;28;19908;-11
2022/10/01 03:46:29;;;;;;;;;;;17.30;92.60;;;;;;5063571;28;19923;-11
2022/10/01 03:48:56;;;;;;;;;;;17.30;92.60;;;;;;5080903;28;19908;-11
2022/10/01 03:51:22;;;;;;;;;;;17.30;92.70;;;;;;5080818;28;19969;-11
2022/10/01 03:53:48;;;;;;;;;;;17.30;92.70;;;;;;5080503;28;19912;-11
2022/10/01 03:56:17;;;;;;;;;;;17.30;92.70;;;;;;5080566;28;20025;-11
2022/10/01 03:58:43;;;;;;;;;;;17.30;92.70;;;;;;5080497;28;20279;-11
2022/10/01 04:01:08;;;;;;;;;;;17.30;92.70;;;;;;5081252;28;20329;-11
2022/10/01 04:03:35;;;;;;;;;;;17.30;92.70;;;;;;5080965;28;20280;-11
2022/10/01 04:06:01;;;;;;;;;;;17.30;92.80;;;;;;5063599;28;20001;-11
2022/10/01 04:08:26;;;;;;;;;;;17.30;92.80;;;;;;5062789;28;19973;-11
2022/10/01 04:10:52;;;;;;;;;;;17.30;92.80;;;;;;5080156;28;19916;-11
2022/10/01 04:13:20;;;;;;;;;;;17.30;92.80;;;;;;5079928;28;19913;-11
2022/10/01 04:15:47;;;;;;;;;;;17.30;92.80;;;;;;5063149;28;20399;-11
2022/10/01 04:18:12;;;;;;;;;;;17.30;92.90;;;;;;5063164;28;20267;-11
2022/10/01 04:20:38;;;;;;;;;;;17.30;92.90;;;;;;5062529;28;20335;-11
2022/10/01 04:23:04;;;;;;;;;;;17.20;92.80;;;;;;5062899;28;19923;-11
2022/10/01 04:25:30;;;;;;;;;;;17.20;92.80;;;;;;5063190;28;20383;-11
2022/10/01 04:27:55;;;;;;;;;;;17.20;92.90;;;;;;5062363;28;19919;-11
2022/10/01 04:30:21;;;;;;;;;;;17.20;92.90;;;;;;5062934;28;19912;-11
2022/10/01 04:32:48;;;;;;;;;;;17.20;92.90;;;;;;5079994;28;19913;-11
2022/10/01 04:35:13;;;;;;;;;;;17.30;93.00;;;;;;5080049;28;19908;-11
2022/10/01 04:37:39;;;;;;;;;;;17.20;93.00;;;;;;5080187;28;19908;-11
2022/10/01 04:40:05;;;;;;;;;;;17.20;93.00;;;;;;5079196;28;20482;-11
2022/10/01 04:42:31;;;;;;;;;;;17.20;93.00;;;;;;5078804;28;20274;-11
2022/10/01 04:44:56;;;;;;;;;;;17.20;93.00;;;;;;5061708;28;19938;-11
2022/10/01 04:47:22;;;;;;;;;;;17.20;93.00;;;;;;5079106;28;20200;-11
2022/10/01 04:49:48;;;;;;;;;;;17.20;93.00;;;;;;5061788;28;19947;-11
2022/10/01 04:52:14;;;;;;;;;;;17.20;93.00;;;;;;5060471;28;19912;-11
2022/10/01 04:54:40;;;;;;;;;;;17.20;93.00;;;;;;5061067;28;20282;-11
2022/10/01 04:57:05;;;;;;;;;;;17.20;93.30;;;;;;5079166;28;20181;-11
2022/10/01 04:59:31;;;;;;;;;;;17.20;93.10;;;;;;5062079;28;19920;-11
2022/10/01 05:01:57;;;;;;;;;;;17.20;93.10;;;;;;5061575;28;19908;-11
2022/10/01 05:04:22;;;;;;;;;;;17.20;93.10;;;;;;5079639;28;19909;-11
2022/10/01 05:06:48;;;;;;;;;;;17.20;93.10;;;;;;5078500;28;19939;-11
2022/10/01 05:09:14;;;;;;;;;;;17.20;93.10;;;;;;5057767;28;19964;-11
2022/10/01 05:11:39;;;;;;;;;;;17.20;93.10;;;;;;5073975;28;20008;-11
2022/10/01 05:14:05;;;;;;;;;;;17.20;93.10;;;;;;5074156;28;19945;-11
2022/10/01 05:16:30;;;;;;;;;;;17.20;93.40;;;;;;5075750;28;19970;-11
2022/10/01 05:18:57;;;;;;;;;;;17.20;93.10;;;;;;5075852;28;20293;-11
2022/10/01 05:21:24;;;;;;;;;;;17.20;93.10;;;;;;5073124;28;20312;-11
2022/10/01 05:23:49;;;;;;;;;;;17.20;93.10;;;;;;5074446;28;19952;-11
2022/10/01 05:26:15;;;;;;;;;;;17.20;93.20;;;;;;5057888;28;20280;-11
2022/10/01 05:28:43;;;;;;;;;;;17.20;93.20;;;;;;5074183;28;19969;-11
2022/10/01 05:31:10;;;;;;;;;;;17.20;93.20;;;;;;5055758;28;20399;-11
2022/10/01 05:33:36;;;;;;;;;;;17.20;93.20;;;;;;5073323;28;19913;-11
2022/10/01 05:36:03;;;;;;;;;;;17.20;93.20;;;;;;5073253;28;20309;-11
2022/10/01 05:38:29;;;;;;;;;;;17.20;93.20;;;;;;5056165;28;19962;-11
2022/10/01 05:40:56;;;;;;;;;;;17.20;93.20;;;;;;5056049;28;20219;-11
2022/10/01 05:43:21;;;;;;;;;;;17.20;93.20;;;;;;5057146;28;20492;-11
2022/10/01 05:45:48;;;;;;;;;;;17.20;93.20;;;;;;5056451;28;19963;-11
2022/10/01 05:48:14;;;;;;;;;;;17.20;93.20;;;;;;5055484;28;20029;-11
2022/10/01 05:50:41;;;;;;;;;;;17.20;93.30;;;;;;5072188;28;20030;-11
2022/10/01 05:53:08;;;;;;;;;;;17.20;93.30;;;;;;5071914;28;19912;-11
2022/10/01 05:55:33;;;;;;;;;;;17.20;93.30;;;;;;5071443;28;19908;-11
2022/10/01 05:58:00;;;;;;;;;;;17.20;93.20;;;;;;5072214;28;19909;-11
2022/10/01 06:00:29;;;;;;;;;;;17.20;93.20;;;;;;5070719;28;20284;-11
2022/10/01 06:02:56;;;;;;;;;;;17.20;93.30;;;;;;5071641;28;19908;-11
2022/10/01 06:05:21;;;;;;;;;;;17.20;93.30;;;;;;5072009;28;19909;-11
2022/10/01 06:07:47;;;;;;;;;;;17.20;93.30;;;;;;5053485;28;19909;-11
2022/10/01 06:10:13;;;;;;;;;;;17.20;93.30;;;;;;5070841;28;19919;-11
2022/10/01 06:12:39;;;;;;;;;;;17.20;93.30;;;;;;5053150;28;20009;-11
2022/10/01 06:15:04;;;;;;;;;;;17.20;93.30;;;;;;5053912;28;19919;-11
2022/10/01 06:17:30;;;;;;;;;;;17.20;93.30;;;;;;5052776;28;19959;-11
2022/10/01 06:19:56;;;;;;;;;;;17.20;93.30;;;;;;5053023;28;19913;-11
2022/10/01 06:22:22;;;;;;;;;;;17.20;93.30;;;;;;5072243;28;19920;-11
2022/10/01 06:24:47;;;;;;;;;;;17.20;93.30;;;;;;5072481;28;19920;-11
2022/10/01 06:27:13;;;;;;;;;;;17.20;93.30;;;;;;5073463;28;20370;-11
2022/10/01 06:29:38;;;;;;;;;;;17.20;93.30;;;;;;5071643;28;19908;-11
2022/10/01 06:32:06;;;;;;;;;;;17.20;93.40;;;;;;5070398;28;20283;-11
2022/10/01 06:34:32;;;;;;;;;;;17.20;93.30;;;;;;5052844;28;19997;-11
2022/10/01 06:36:58;;;;;;;;;;;17.20;93.30;;;;;;5069849;28;19935;-11
2022/10/01 06:39:23;;;;;;;;;;;17.20;93.60;;;;;;5052763;28;19917;-11
2022/10/01 06:41:49;;;;;;;;;;;17.20;93.40;;;;;;5052671;28;20224;-11
2022/10/01 06:44:15;;;;;;;;;;;17.20;93.40;;;;;;5053841;28;20038;-11
2022/10/01 06:46:40;;;;;;;;;;;17.20;93.30;;;;;;5071306;28;19925;-11
2022/10/01 06:49:06;;;;;;;;;;;17.20;93.30;;;;;;5053778;28;20181;-11
2022/10/01 06:54:17;;;;;;;;;;;17.20;93.30;;;;;;5070682;28;20029;-11
2022/10/01 06:56:42;;;;;;;;;;;17.20;93.30;;;;;;5070427;28;20072;-11
2022/10/01 06:59:08;;;;;;;;;;;17.20;93.30;;;;;;5068945;28;20084;-11
2022/10/01 07:01:35;;;;;;;;;;;17.20;93.30;;;;;;5069595;28;19909;-11
2022/10/01 07:04:01;;;;;;;;;;;17.20;93.30;;;;;;5052267;28;19934;-11
2022/10/01 07:06:26;;;;;;;;;;;17.20;93.30;;;;;;5070018;28;19973;-11
2022/10/01 07:08:52;;;;;;;;;;;17.30;93.30;;;;;;5053237;28;19908;-11
2022/10/01 07:11:18;;;;;;;;;;;17.20;93.20;;;;;;5070792;28;19909;-11
2022/10/01 07:13:44;;;;;;;;;;;17.20;93.30;;;;;;5070891;28;19923;-11
2022/10/01 07:16:09;;;;;;;;;;;17.30;93.30;;;;;;5051118;28;19909;-11
2022/10/01 07:18:35;;;;;;;;;;;17.30;93.30;;;;;;5051807;28;19908;-11
2022/10/01 07:21:01;;;;;;;;;;;17.30;93.30;;;;;;5053394;28;20299;-11
2022/10/01 07:23:28;;;;;;;;;;;17.30;93.30;;;;;;5053568;28;19927;-11
2022/10/01 07:25:54;;;;;;;;;;;17.30;93.40;;;;;;5068680;28;19908;-11
2022/10/01 07:28:22;;;;;;;;;;;17.30;93.60;;;;;;5052430;28;20168;-11
2022/10/01 07:31:01;;;;;;;;;;;17.30;93.70;;;;;;5052760;28;19919;-11
2022/10/01 07:33:27;;;;;;;;;;;17.30;93.80;;;;;;5052232;28;19912;-11
2022/10/01 07:35:53;;;;;;;;;;;17.30;93.90;;;;;;5051130;28;19931;-11
2022/10/01 07:38:19;;;;;;;;;;;17.30;94.00;;;;;;5049749;28;20247;-11
2022/10/01 07:40:49;;;;;;;;;;;17.40;94.10;;;;;;5067719;28;19939;-11
2022/10/01 07:43:15;;;;;;;;;;;17.40;94.10;;;;;;5051264;28;19981;-11
2022/10/01 07:45:40;;;;;;;;;;;17.40;94.20;;;;;;5068017;28;19916;-11
2022/10/01 07:48:07;;;;;;;;;;;17.40;94.30;;;;;;5067666;28;19908;-11
2022/10/01 07:50:33;;;;;;;;;;;17.40;94.30;;;;;;5065734;28;20088;-11
2022/10/01 07:53:00;;;;;;;;;;;17.40;94.40;;;;;;5065941;28;20015;-11
2022/10/01 07:55:27;;;;;;;;;;;17.40;94.50;;;;;;5066580;28;19909;-11
2022/10/01 07:57:54;;;;;;;;;;;17.40;94.50;;;;;;5068459;28;20173;-11
2022/10/01 08:00:20;;;;;;;;;;;17.40;94.70;;;;;;5049444;28;20149;-11
2022/10/01 08:02:46;;;;;;;;;;;17.40;94.80;;;;;;5068201;28;19908;-11
2022/10/01 08:05:19;;;;;;;;;;;17.40;95.00;;;;;;5050420;28;19917;-11
2022/10/01 08:07:45;;;;;;;;;;;17.40;95.10;;;;;;5067912;28;19944;-11
2022/10/01 08:10:11;;;;;;;;;;;17.50;95.10;;;;;;5068362;28;20363;-11
2022/10/01 08:12:36;;;;;;;;;;;17.50;95.00;;;;;;5067639;28;19920;-11
2022/10/01 08:15:02;;;;;;;;;;;17.60;95.00;;;;;;5067701;28;20254;-11
2022/10/01 08:17:28;;;;;;;;;;;17.70;94.90;;;;;;5067698;28;19916;-11
2022/10/01 08:19:54;;;;;;;;;;;17.80;94.70;;;;;;5065314;28;20120;-11
2022/10/01 08:22:19;;;;;;;;;;;17.90;94.40;;;;;;5046830;28;20053;-11
2022/10/01 08:24:45;;;;;;;;;;;18.00;94.00;;;;;;5045957;28;20072;-11
2022/10/01 08:27:10;;;;;;;;;;;18.00;93.90;;;;;;5049016;28;20000;-11
2022/10/01 08:29:36;;;;;;;;;;;18.00;94.00;;;;;;5050649;28;20007;-11
2022/10/01 08:32:02;;;;;;;;;;;18.20;93.90;;;;;;5067032;28;20030;-11
2022/10/01 08:34:28;;;;;;;;;;;18.70;92.70;;;;;;5069342;28;19975;-11
2022/10/01 08:36:53;;;;;;;;;;;18.70;92.60;;;;;;5069284;28;20056;-11
2022/10/01 08:39:19;;;;;;;;;;;18.60;92.70;;;;;;5069619;28;19919;-11
2022/10/01 08:41:45;;;;;;;;;;;19.00;92.20;;;;;;5069842;28;20235;-11
2022/10/01 08:44:22;;;;;;;;;;;19.40;91.30;;;;;;5069547;28;19970;-11
2022/10/01 08:46:49;;;;;;;;;;;19.60;90.70;;;;;;5070807;28;20012;-11
2022/10/01 08:49:19;;;;;;;;;;;19.80;89.10;;;;;;5069089;28;20182;-11
2022/10/01 08:51:45;;;;;;;;;;;19.60;90.00;;;;;;5052193;28;20314;-11
2022/10/01 08:54:29;;;;;;;;;;;19.50;90.20;;;;;;5070816;28;20351;-11
2022/10/01 08:56:57;;;;;;;;;;;20.00;88.70;;;;;;5070423;28;19940;-11
2022/10/01 08:59:31;;;;;;;;;;;21.20;81.80;;;;;;5070385;28;20420;-11
2022/10/01 09:01:58;;;;;;;;;;;22.70;73.10;;;;;;5072337;28;20308;-11
2022/10/01 09:04:24;;;;;;;;;;;22.70;68.30;;;;;;5052809;28;20249;-11
2022/10/01 09:06:55;;;;;;;;;;;21.80;70.70;;;;;;5072461;28;20003;-11
2022/10/01 09:09:30;;;;;;;;;;;21.20;76.80;;;;;;5053864;28;19919;-11
2022/10/01 09:11:57;;;;;;;;;;;20.70;85.50;;;;;;5070446;28;19927;-11
2022/10/01 09:14:23;;;;;;;;;;;20.30;91.00;;;;;;5053005;28;19908;-11
2022/10/01 09:17:12;;;;;;;;;;;20.00;93.10;;;;;;5069658;28;19919;-11
2022/10/01 09:19:57;;;;;;;;;;;19.90;94.30;;;;;;5055445;28;19920;-11
2022/10/01 09:22:40;;;;;;;;;;;19.70;95.80;;;;;;5068582;28;20055;-11
2022/10/01 09:25:12;;;;;;;;;;;19.60;96.70;;;;;;5067824;28;20324;-11
2022/10/01 09:27:38;;;;;;;;;;;19.60;97.00;;;;;;5050318;28;19999;-11
2022/10/01 09:30:06;;;;;;;;;;;19.50;97.60;;;;;;5067973;28;19912;-11
2022/10/01 09:32:48;;;;;;;;;;;19.50;98.80;;;;;;5049909;28;19918;-11
2022/10/01 09:35:24;;;;;;;;;;;19.50;99.50;;;;;;5047653;28;20208;-11
2022/10/01 09:38:05;;;;;;;;;;;19.50;99.50;;;;;;5067738;28;20305;-11
2022/10/01 09:40:35;;;;;;;;;;;19.50;99.80;;;;;;5049926;28;19971;-11
2022/10/01 09:43:02;;;;;;;;;;;19.40;99.90;;;;;;5066219;28;20055;-11
2022/10/01 09:45:28;;;;;;;;;;;19.40;99.90;;;;;;5065132;28;20019;-11
2022/10/01 09:47:56;;;;;;;;;;;19.40;99.90;;;;;;5065823;28;20007;-11
2022/10/01 09:50:30;;;;;;;;;;;19.30;99.90;;;;;;5065941;28;19974;-11
2022/10/01 09:52:57;;;;;;;;;;;19.30;99.90;;;;;;5047071;28;20225;-11
2022/10/01 09:55:28;;;;;;;;;;;19.30;99.90;;;;;;5047746;28;19916;-11
2022/10/01 09:58:13;;;;;;;;;;;19.30;99.90;;;;;;5066779;28;19909;-11
2022/10/01 10:00:39;;;;;;;;;;;19.20;99.90;;;;;;5065697;28;20029;-11
2022/10/01 10:03:05;;;;;;;;;;;19.20;99.90;;;;;;5068110;28;19912;-11
2022/10/01 10:05:41;;;;;;;;;;;19.20;99.90;;;;;;5051154;28;19924;-11
2022/10/01 10:08:30;;;;;;;;;;;19.10;99.90;;;;;;5049217;28;19912;-11
2022/10/01 10:10:59;;;;;;;;;;;19.10;99.90;;;;;;5052241;28;20013;-11
2022/10/01 10:13:42;;;;;;;;;;;19.10;99.90;;;;;;5047390;28;20116;-11
2022/10/01 10:16:14;;;;;;;;;;;19.10;99.90;;;;;;5066239;28;19908;-11
2022/10/01 10:18:40;;;;;;;;;;;19.00;99.90;;;;;;5066223;28;19915;-11
2022/10/01 10:21:18;;;;;;;;;;;19.00;99.90;;;;;;5049049;28;20024;-11
2022/10/01 10:24:10;;;;;;;;;;;19.00;99.90;;;;;;5067391;28;19948;-11
2022/10/01 10:26:37;;;;;;;;;;;19.00;99.90;;;;;;5061591;28;20174;-11
2022/10/01 10:29:04;;;;;;;;;;;19.00;99.90;;;;;;5066772;28;19963;-11
2022/10/01 10:31:50;;;;;;;;;;;19.00;99.90;;;;;;5073927;28;19916;-11
2022/10/01 10:34:34;;;;;;;;;;;19.10;99.90;;;;;;5052122;28;20440;-11
2022/10/01 10:37:03;;;;;;;;;;;19.20;99.90;;;;;;5073885;28;19986;-11
2022/10/01 10:39:34;;;;;;;;;;;19.40;99.90;;;;;;5073944;28;19909;-11
2022/10/01 10:42:01;;;;;;;;;;;19.60;99.90;;;;;;5073908;28;19909;-11
2022/10/01 10:44:30;;;;;;;;;;;19.80;99.90;;;;;;5070019;28;19917;-12
2022/10/01 10:47:01;;;;;;;;;;;19.80;99.70;;;;;;5049889;28;20197;-12
2022/10/01 10:49:28;;;;;;;;;;;19.90;99.40;;;;;;5067193;28;19919;-12
2022/10/01 10:51:55;;;;;;;;;;;20.10;99.10;;;;;;5067848;28;19973;-12
2022/10/01 10:54:23;;;;;;;;;;;20.10;98.70;;;;;;5066042;28;19969;-12
2022/10/01 10:56:59;;;;;;;;;;;20.20;98.50;;;;;;5065733;28;20293;-12
2022/10/01 10:59:25;;;;;;;;;;;20.20;98.30;;;;;;5067245;28;20003;-12
2022/10/01 11:01:51;;;;;;;;;;;20.20;98.30;;;;;;5067648;28;20170;-12
2022/10/01 11:04:40;;;;;;;;;;;20.20;98.20;;;;;;5048913;28;20265;-12
2022/10/01 11:07:06;;;;;;;;;;;20.30;98.10;;;;;;5052466;28;19908;-12
2022/10/01 11:09:42;;;;;;;;;;;20.40;98.00;;;;;;5057634;28;20123;-12
2022/10/01 11:12:17;;;;;;;;;;;20.40;98.00;;;;;;5028520;28;19943;-12
2022/10/01 11:15:09;;;;;;;;;;;20.50;97.90;;;;;;5047606;28;19909;-12
2022/10/01 11:17:39;;;;;;;;;;;20.50;97.80;;;;;;5023407;28;20019;-12
2022/10/01 11:20:11;;;;;;;;;;;20.60;97.70;;;;;;5029845;28;19909;-12
2022/10/01 11:22:43;;;;;;;;;;;20.70;97.60;;;;;;5046107;28;19908;-12
2022/10/01 11:25:14;;;;;;;;;;;20.70;97.40;;;;;;5047052;28;19909;-12
2022/10/01 11:27:41;;;;;;;;;;;20.80;97.40;;;;;;5029507;28;20431;-12
2022/10/01 11:30:12;;;;;;;;;;;20.80;97.30;;;;;;5046537;28;20251;-12
2022/10/01 11:32:45;;;;;;;;;;;20.80;97.30;;;;;;5028611;28;20347;-12
2022/10/01 11:35:11;;;;;;;;;;;20.70;97.40;;;;;;5028464;28;20301;-12
2022/10/01 11:37:46;;;;;;;;;;;20.70;97.60;;;;;;5045471;28;19908;-12
2022/10/01 11:40:16;;;;;;;;;;;20.80;97.60;;;;;;5056566;28;20290;-12
2022/10/01 11:42:43;;;;;;;;;;;20.80;97.70;;;;;;5073992;28;19912;-12
2022/10/01 11:45:20;;;;;;;;;;;20.80;97.70;;;;;;5074267;28;19923;-12
2022/10/01 11:47:56;;;;;;;;;;;20.80;97.70;;;;;;5065675;28;19920;-12
2022/10/01 11:50:32;;;;;;;;;;;20.90;97.60;;;;;;5065015;28;19935;-12
2022/10/01 11:53:17;;;;;;;;;;;20.90;97.60;;;;;;5065725;28;20108;-12
2022/10/01 11:58:51;;;;;;;;;;;20.90;97.60;;;;;;5064628;28;19940;-12
2022/10/01 12:01:23;;;;;;;;;;;20.80;97.60;;;;;;5064373;28;20269;-12
2022/10/01 12:03:49;;;;;;;;;;;20.80;97.80;;;;;;5065358;28;19993;-12
2022/10/01 12:06:16;;;;;;;;;;;20.70;97.80;;;;;;5068313;28;19947;-12
2022/10/01 12:08:47;;;;;;;;;;;20.60;98.00;;;;;;5068085;28;19958;-12
2022/10/01 12:11:19;;;;;;;;;;;20.60;98.20;;;;;;5068457;28;19974;-12
2022/10/01 12:13:55;;;;;;;;;;;20.50;98.30;;;;;;5068396;28;19978;-12
2022/10/01 12:16:33;;;;;;;;;;;20.50;98.50;;;;;;5063717;28;19919;-12
2022/10/01 12:18:58;;;;;;;;;;;20.40;98.50;;;;;;5072251;28;20027;-12
2022/10/01 12:21:33;;;;;;;;;;;20.40;98.50;;;;;;5069254;28;19999;-12
2022/10/01 12:24:10;;;;;;;;;;;20.50;98.40;;;;;;5069230;28;20226;-12
2022/10/01 12:26:51;;;;;;;;;;;20.50;98.40;;;;;;5069998;28;19909;-12
2022/10/01 12:29:19;;;;;;;;;;;20.60;98.30;;;;;;5070657;28;19944;-12
2022/10/01 12:32:08;;;;;;;;;;;20.50;98.30;;;;;;5069306;28;19971;-12
2022/10/01 12:34:42;;;;;;;;;;;20.50;98.50;;;;;;5057313;28;19919;-12
2022/10/01 12:37:26;;;;;;;;;;;20.40;98.50;;;;;;5070457;28;19916;-12
2022/10/01 12:39:58;;;;;;;;;;;20.40;98.60;;;;;;5070467;28;20209;-12
2022/10/01 12:42:32;;;;;;;;;;;20.40;98.50;;;;;;5070406;28;20170;-12
2022/10/01 12:45:18;;;;;;;;;;;20.50;98.40;;;;;;5070384;28;19916;-12
2022/10/01 12:48:10;;;;;;;;;;;20.50;98.30;;;;;;5050506;28;20172;-12
2022/10/01 12:50:54;;;;;;;;;;;20.60;98.30;;;;;;5029529;28;19909;-12
2022/10/01 12:53:34;;;;;;;;;;;20.60;98.20;;;;;;5048889;28;19979;-12
2022/10/01 12:56:00;;;;;;;;;;;20.60;98.20;;;;;;5066298;28;20333;-12
2022/10/01 12:58:38;;;;;;;;;;;20.50;98.20;;;;;;5049076;28;20019;-12
2022/10/01 13:01:12;;;;;;;;;;;20.50;98.40;;;;;;5067496;28;19908;-12
2022/10/01 13:04:01;;;;;;;;;;;20.40;98.50;;;;;;5048048;28;20392;-12
2022/10/01 13:06:45;;;;;;;;;;;20.50;98.40;;;;;;5048048;28;20167;-12
2022/10/01 13:09:14;;;;;;;;;;;20.50;98.50;;;;;;5047467;28;19908;-12
2022/10/01 13:11:49;;;;;;;;;;;20.60;98.30;;;;;;5049169;28;19915;-12
2022/10/01 13:14:16;;;;;;;;;;;20.60;98.20;;;;;;5048227;28;20221;-12
2022/10/01 13:16:47;;;;;;;;;;;20.60;98.20;;;;;;5050856;28;19916;-12
2022/10/01 13:19:16;;;;;;;;;;;20.60;98.10;;;;;;5069701;28;19916;-12
2022/10/01 13:22:00;;;;;;;;;;;20.60;98.20;;;;;;5070946;28;19909;-12
2022/10/01 13:24:33;;;;;;;;;;;20.60;98.30;;;;;;5059101;28;20327;-12
2022/10/01 13:27:03;;;;;;;;;;;20.60;98.40;;;;;;5057416;28;19920;-12
2022/10/01 13:29:47;;;;;;;;;;;20.60;98.40;;;;;;5056477;28;20370;-12
2022/10/01 13:32:26;;;;;;;;;;;20.50;98.40;;;;;;5050079;28;19909;-12
2022/10/01 13:34:53;;;;;;;;;;;20.40;98.50;;;;;;5031831;28;19908;-12
2022/10/01 13:37:31;;;;;;;;;;;20.40;98.60;;;;;;5048024;28;19916;-12
2022/10/01 13:39:57;;;;;;;;;;;20.40;98.80;;;;;;5032216;28;19913;-12
2022/10/01 13:42:44;;;;;;;;;;;20.40;98.80;;;;;;5030526;28;20221;-12
2022/10/01 13:45:27;;;;;;;;;;;20.40;98.80;;;;;;5030085;28;19921;-12
2022/10/01 13:48:11;;;;;;;;;;;20.40;98.70;;;;;;5045404;28;19919;-12
2022/10/01 13:50:40;;;;;;;;;;;20.40;98.60;;;;;;5047874;28;19923;-12
2022/10/01 13:53:14;;;;;;;;;;;20.40;98.70;;;;;;5044250;28;19955;-12
2022/10/01 13:55:41;;;;;;;;;;;20.40;98.80;;;;;;5028058;28;19939;-12
2022/10/01 13:58:29;;;;;;;;;;;20.40;98.90;;;;;;5045385;28;20158;-12
2022/10/01 14:00:56;;;;;;;;;;;20.40;98.90;;;;;;5044693;28;19914;-12
2022/10/01 14:03:29;;;;;;;;;;;20.40;98.90;;;;;;5042713;28;20178;-12
2022/10/01 14:05:55;;;;;;;;;;;20.40;98.80;;;;;;5026636;28;19936;-12
2022/10/01 14:08:30;;;;;;;;;;;20.40;98.70;;;;;;5046473;28;19908;-12
2022/10/01 14:16:44;;;;;;;;;;;20.40;98.70;;;;;;5046936;28;19993;-12
2022/10/01 14:19:16;;;;;;;;;;;20.40;98.70;;;;;;5028779;28;20086;-12
2022/10/01 14:21:42;;;;;;;;;;;20.40;98.80;;;;;;5046185;28;20233;-12
2022/10/01 14:24:13;;;;;;;;;;;20.40;98.80;;;;;;5045615;28;19970;-12
2022/10/01 14:26:39;;;;;;;;;;;20.40;98.80;;;;;;5047658;28;20015;-12
2022/10/01 14:29:05;;;;;;;;;;;20.30;98.90;;;;;;5044948;28;20066;-12
2022/10/01 14:31:49;;;;;;;;;;;20.30;98.90;;;;;;5027425;28;19909;-12
2022/10/01 14:34:40;;;;;;;;;;;20.30;99.00;;;;;;5045466;28;19913;-12
2022/10/01 14:37:07;;;;;;;;;;;20.30;99.10;;;;;;5023749;28;20000;-12
2022/10/01 14:39:33;;;;;;;;;;;20.30;99.10;;;;;;5045625;28;19913;-12
2022/10/01 14:42:05;;;;;;;;;;;20.30;99.10;;;;;;5046795;28;19990;-12